sensor_id;sensor_type;location;lat;lon;timestamp;pressure;altitude;pressure_sealevel;temperature;humidity
21111;BME280;10713;51.912;4.494;2023-03-26T00:00:56;100702.41;;;10.68;100.00
21111;BME280;10713;51.912;4.494;2023-03-26T00:03:22;100701.06;;;10.57;100.00
21111;BME280;10713;51.912;4.494;2023-03-26T00:05:47;100693.00;;;10.60;100.00
21111;BME280;10713;51.912;4.494;2023-03-26T00:08:15;100690.72;;;10.73;100.00
21111;BME280;10713;51.912;4.494;2023-03-26T00:10:41;100697.66;;;10.76;100.00
21111;BME280;10713;51.912;4.494;2023-03-26T00:13:07;100689.78;;;10.74;100.00
21111;BME280;10713;51.912;4.494;2023-03-26T00:15:34;100680.22;;;10.72;100.00
21111;BME280;10713;51.912;4.494;2023-03-26T00:18:00;100675.91;;;10.69;100.00
21111;BME280;10713;51.912;4.494;2023-03-26T00:20:27;100674.25;;;10.67;100.00
21111;BME280;10713;51.912;4.494;2023-03-26T00:22:54;100670.06;;;10.63;100.00
21111;BME280;10713;51.912;4.494;2023-03-26T00:25:20;100669.13;;;10.64;100.00
21111;BME280;10713;51.912;4.494;2023-03-26T00:27:48;100671.56;;;10.68;100.00
21111;BME280;10713;51.912;4.494;2023-03-26T00:30:14;100662.84;;;10.66;100.00
21111;BME280;10713;51.912;4.494;2023-03-26T00:32:39;100655.34;;;10.57;100.00
21111;BME280;10713;51.912;4.494;2023-03-26T00:35:05;100653.13;;;10.46;100.00
21111;BME280;10713;51.912;4.494;2023-03-26T00:37:31;100662.31;;;10.58;100.00
21111;BME280;10713;51.912;4.494;2023-03-26T00:39:58;100644.09;;;10.52;100.00
21111;BME280;10713;51.912;4.494;2023-03-26T00:42:27;100645.22;;;10.46;100.00
21111;BME280;10713;51.912;4.494;2023-03-26T00:44:53;100642.56;;;10.46;100.00
21111;BME280;10713;51.912;4.494;2023-03-26T00:47:27;100642.56;;;10.46;100.00
21111;BME280;10713;51.912;4.494;2023-03-26T00:49:53;100645.81;;;10.53;100.00
21111;BME280;10713;51.912;4.494;2023-03-26T00:52:20;100638.16;;;10.47;100.00
21111;BME280;10713;51.912;4.494;2023-03-26T00:54:46;100631.47;;;10.38;100.00
21111;BME280;10713;51.912;4.494;2023-03-26T00:57:13;100634.97;;;10.38;100.00
21111;BME280;10713;51.912;4.494;2023-03-26T00:59:39;100634.75;;;10.45;100.00
21111;BME280;10713;51.912;4.494;2023-03-26T01:02:06;100634.88;;;10.42;100.00
21111;BME280;10713;51.912;4.494;2023-03-26T01:04:35;100632.34;;;10.38;100.00
21111;BME280;10713;51.912;4.494;2023-03-26T01:07:05;100628.78;;;10.40;100.00
21111;BME280;10713;51.912;4.494;2023-03-26T01:09:36;100631.56;;;10.36;100.00
21111;BME280;10713;51.912;4.494;2023-03-26T01:12:10;100628.00;;;10.37;100.00
21111;BME280;10713;51.912;4.494;2023-03-26T01:14:37;100615.53;;;10.19;100.00
21111;BME280;10713;51.912;4.494;2023-03-26T01:17:05;100622.84;;;10.12;100.00
21111;BME280;10713;51.912;4.494;2023-03-26T01:22:20;100608.75;;;10.13;100.00
21111;BME280;10713;51.912;4.494;2023-03-26T01:24:46;100610.91;;;10.24;100.00
21111;BME280;10713;51.912;4.494;2023-03-26T01:27:22;100604.63;;;10.28;100.00
21111;BME280;10713;51.912;4.494;2023-03-26T01:40:36;100573.75;;;10.71;100.00
21111;BME280;10713;51.912;4.494;2023-03-26T01:43:34;100561.97;;;10.59;100.00
21111;BME280;10713;51.912;4.494;2023-03-26T01:46:05;100564.94;;;10.52;100.00
21111;BME280;10713;51.912;4.494;2023-03-26T01:48:37;100561.97;;;10.39;100.00
21111;BME280;10713;51.912;4.494;2023-03-26T01:51:05;100561.34;;;10.32;100.00
21111;BME280;10713;51.912;4.494;2023-03-26T01:53:34;100564.94;;;10.31;100.00
21111;BME280;10713;51.912;4.494;2023-03-26T01:56:18;100564.22;;;10.28;100.00
21111;BME280;10713;51.912;4.494;2023-03-26T02:04:25;100559.75;;;10.08;100.00
21111;BME280;10713;51.912;4.494;2023-03-26T02:07:02;100553.72;;;10.04;100.00
21111;BME280;10713;51.912;4.494;2023-03-26T02:09:44;100544.34;;;9.97;100.00
21111;BME280;10713;51.912;4.494;2023-03-26T02:12:13;100540.78;;;9.98;100.00
21111;BME280;10713;51.912;4.494;2023-03-26T02:14:39;100542.84;;;10.12;100.00
21111;BME280;10713;51.912;4.494;2023-03-26T02:17:06;100543.38;;;10.20;100.00
21111;BME280;10713;51.912;4.494;2023-03-26T02:19:34;100532.56;;;10.28;100.00
21111;BME280;10713;51.912;4.494;2023-03-26T02:21:59;100528.28;;;10.24;100.00
21111;BME280;10713;51.912;4.494;2023-03-26T02:24:26;100525.09;;;10.15;100.00
21111;BME280;10713;51.912;4.494;2023-03-26T02:26:51;100525.19;;;10.14;100.00
21111;BME280;10713;51.912;4.494;2023-03-26T02:29:17;100521.31;;;10.23;100.00
21111;BME280;10713;51.912;4.494;2023-03-26T02:31:47;100524.28;;;10.35;100.00
21111;BME280;10713;51.912;4.494;2023-03-26T02:34:13;100513.03;;;10.32;100.00
21111;BME280;10713;51.912;4.494;2023-03-26T02:36:39;100507.03;;;10.28;100.00
21111;BME280;10713;51.912;4.494;2023-03-26T02:39:08;100496.50;;;10.06;100.00
21111;BME280;10713;51.912;4.494;2023-03-26T02:41:35;100508.25;;;9.99;100.00
21111;BME280;10713;51.912;4.494;2023-03-26T02:44:01;100505.25;;;9.86;100.00
21111;BME280;10713;51.912;4.494;2023-03-26T02:46:26;100501.66;;;9.67;100.00
21111;BME280;10713;51.912;4.494;2023-03-26T02:48:51;100491.63;;;9.55;100.00
21111;BME280;10713;51.912;4.494;2023-03-26T02:51:17;100502.53;;;9.45;100.00
21111;BME280;10713;51.912;4.494;2023-03-26T02:53:43;100497.19;;;9.47;100.00
21111;BME280;10713;51.912;4.494;2023-03-26T02:56:09;100492.81;;;9.47;100.00
21111;BME280;10713;51.912;4.494;2023-03-26T02:58:35;100496.59;;;9.40;100.00
21111;BME280;10713;51.912;4.494;2023-03-26T03:01:00;100491.44;;;9.37;100.00
21111;BME280;10713;51.912;4.494;2023-03-26T03:03:27;100482.72;;;9.35;100.00
21111;BME280;10713;51.912;4.494;2023-03-26T03:05:54;100481.66;;;9.19;100.00
21111;BME280;10713;51.912;4.494;2023-03-26T03:08:22;100482.88;;;9.10;100.00
21111;BME280;10713;51.912;4.494;2023-03-26T03:10:59;100479.97;;;9.16;100.00
21111;BME280;10713;51.912;4.494;2023-03-26T03:13:26;100469.50;;;9.15;100.00
21111;BME280;10713;51.912;4.494;2023-03-26T03:15:52;100465.53;;;9.05;100.00
21111;BME280;10713;51.912;4.494;2023-03-26T03:18:18;100470.03;;;9.01;100.00
21111;BME280;10713;51.912;4.494;2023-03-26T03:20:43;100468.16;;;9.05;100.00
21111;BME280;10713;51.912;4.494;2023-03-26T03:23:09;100451.38;;;9.07;100.00
21111;BME280;10713;51.912;4.494;2023-03-26T03:25:35;100460.69;;;9.16;100.00
21111;BME280;10713;51.912;4.494;2023-03-26T03:28:00;100454.25;;;9.23;100.00
21111;BME280;10713;51.912;4.494;2023-03-26T03:30:26;100452.97;;;9.33;100.00
21111;BME280;10713;51.912;4.494;2023-03-26T03:32:52;100443.16;;;9.37;100.00
21111;BME280;10713;51.912;4.494;2023-03-26T03:35:17;100437.94;;;9.35;100.00
21111;BME280;10713;51.912;4.494;2023-03-26T03:37:43;100445.97;;;9.32;100.00
21111;BME280;10713;51.912;4.494;2023-03-26T03:40:09;100441.38;;;9.37;100.00
21111;BME280;10713;51.912;4.494;2023-03-26T03:42:37;100435.19;;;9.38;100.00
21111;BME280;10713;51.912;4.494;2023-03-26T03:45:03;100428.50;;;9.30;100.00
21111;BME280;10713;51.912;4.494;2023-03-26T03:47:30;100432.22;;;9.25;100.00
21111;BME280;10713;51.912;4.494;2023-03-26T03:49:56;100426.75;;;9.30;100.00
21111;BME280;10713;51.912;4.494;2023-03-26T03:52:24;100422.28;;;9.32;100.00
21111;BME280;10713;51.912;4.494;2023-03-26T03:54:49;100419.50;;;9.35;100.00
21111;BME280;10713;51.912;4.494;2023-03-26T03:57:15;100406.41;;;9.34;100.00
21111;BME280;10713;51.912;4.494;2023-03-26T03:59:43;100416.53;;;9.44;100.00
21111;BME280;10713;51.912;4.494;2023-03-26T04:02:09;100411.84;;;9.51;100.00
21111;BME280;10713;51.912;4.494;2023-03-26T04:04:35;100399.66;;;9.48;100.00
21111;BME280;10713;51.912;4.494;2023-03-26T04:07:03;100394.78;;;9.39;100.00
21111;BME280;10713;51.912;4.494;2023-03-26T04:09:28;100398.44;;;9.35;100.00
21111;BME280;10713;51.912;4.494;2023-03-26T04:11:54;100391.47;;;9.34;100.00
21111;BME280;10713;51.912;4.494;2023-03-26T04:14:19;100387.19;;;9.32;100.00
21111;BME280;10713;51.912;4.494;2023-03-26T04:16:44;100378.56;;;9.28;100.00
21111;BME280;10713;51.912;4.494;2023-03-26T04:19:10;100379.41;;;9.29;100.00
21111;BME280;10713;51.912;4.494;2023-03-26T04:21:35;100366.88;;;9.13;100.00
21111;BME280;10713;51.912;4.494;2023-03-26T04:24:03;100376.47;;;9.14;100.00
21111;BME280;10713;51.912;4.494;2023-03-26T04:26:30;100371.72;;;9.02;100.00
21111;BME280;10713;51.912;4.494;2023-03-26T04:28:58;100369.47;;;8.93;100.00
21111;BME280;10713;51.912;4.494;2023-03-26T04:31:26;100360.22;;;8.83;100.00
21111;BME280;10713;51.912;4.494;2023-03-26T04:34:21;100357.19;;;8.70;100.00
21111;BME280;10713;51.912;4.494;2023-03-26T04:36:48;100357.06;;;8.51;100.00
21111;BME280;10713;51.912;4.494;2023-03-26T04:39:13;100360.09;;;8.40;100.00
21111;BME280;10713;51.912;4.494;2023-03-26T04:41:39;100361.22;;;8.33;100.00
21111;BME280;10713;51.912;4.494;2023-03-26T04:44:04;100360.66;;;8.25;100.00
21111;BME280;10713;51.912;4.494;2023-03-26T04:46:31;100344.22;;;8.18;100.00
21111;BME280;10713;51.912;4.494;2023-03-26T04:48:58;100340.97;;;8.11;100.00
21111;BME280;10713;51.912;4.494;2023-03-26T04:51:25;100342.88;;;8.08;100.00
21111;BME280;10713;51.912;4.494;2023-03-26T04:53:54;100337.84;;;8.02;100.00
21111;BME280;10713;51.912;4.494;2023-03-26T04:59:03;100331.03;;;7.96;100.00
21111;BME280;10713;51.912;4.494;2023-03-26T05:01:29;100327.72;;;7.91;100.00
21111;BME280;10713;51.912;4.494;2023-03-26T05:03:58;100320.88;;;7.87;100.00
21111;BME280;10713;51.912;4.494;2023-03-26T05:06:25;100313.88;;;7.86;100.00
21111;BME280;10713;51.912;4.494;2023-03-26T05:08:53;100310.34;;;7.87;100.00
21111;BME280;10713;51.912;4.494;2023-03-26T05:11:19;100299.91;;;7.84;100.00
21111;BME280;10713;51.912;4.494;2023-03-26T05:13:44;100303.56;;;7.81;100.00
21111;BME280;10713;51.912;4.494;2023-03-26T05:16:11;100306.25;;;7.78;100.00
21111;BME280;10713;51.912;4.494;2023-03-26T05:18:37;100310.84;;;7.73;100.00
21111;BME280;10713;51.912;4.494;2023-03-26T05:21:02;100303.97;;;7.69;100.00
21111;BME280;10713;51.912;4.494;2023-03-26T05:23:28;100307.56;;;7.66;100.00
21111;BME280;10713;51.912;4.494;2023-03-26T05:25:54;100304.25;;;7.61;100.00
21111;BME280;10713;51.912;4.494;2023-03-26T05:28:20;100299.16;;;7.57;100.00
21111;BME280;10713;51.912;4.494;2023-03-26T05:30:48;100307.00;;;7.58;100.00
21111;BME280;10713;51.912;4.494;2023-03-26T05:33:14;100300.13;;;7.54;100.00
21111;BME280;10713;51.912;4.494;2023-03-26T05:35:40;100296.75;;;7.51;100.00
21111;BME280;10713;51.912;4.494;2023-03-26T05:38:05;100296.75;;;7.51;100.00
21111;BME280;10713;51.912;4.494;2023-03-26T05:40:31;100296.69;;;7.52;100.00
21111;BME280;10713;51.912;4.494;2023-03-26T05:42:56;100293.28;;;7.50;100.00
21111;BME280;10713;51.912;4.494;2023-03-26T05:45:21;100288.91;;;7.49;100.00
21111;BME280;10713;51.912;4.494;2023-03-26T05:47:47;100288.06;;;7.49;100.00
21111;BME280;10713;51.912;4.494;2023-03-26T05:50:14;100290.66;;;7.50;100.00
21111;BME280;10713;51.912;4.494;2023-03-26T05:52:40;100295.91;;;7.50;100.00
21111;BME280;10713;51.912;4.494;2023-03-26T05:55:05;100285.44;;;7.49;100.00
21111;BME280;10713;51.912;4.494;2023-03-26T05:57:32;100288.13;;;7.47;100.00
21111;BME280;10713;51.912;4.494;2023-03-26T05:59:59;100285.50;;;7.47;100.00
21111;BME280;10713;51.912;4.494;2023-03-26T06:02:25;100282.94;;;7.45;100.00
21111;BME280;10713;51.912;4.494;2023-03-26T06:04:50;100282.09;;;7.43;100.00
21111;BME280;10713;51.912;4.494;2023-03-26T06:07:17;100285.66;;;7.42;100.00
21111;BME280;10713;51.912;4.494;2023-03-26T06:09:43;100287.22;;;7.48;100.00
21111;BME280;10713;51.912;4.494;2023-03-26T06:12:10;100284.09;;;7.62;100.00
21111;BME280;10713;51.912;4.494;2023-03-26T06:14:35;100280.66;;;7.60;100.00
21111;BME280;10713;51.912;4.494;2023-03-26T06:17:01;100286.78;;;7.60;100.00
21111;BME280;10713;51.912;4.494;2023-03-26T06:19:26;100269.22;;;7.61;100.00
21111;BME280;10713;51.912;4.494;2023-03-26T06:21:52;100270.97;;;7.62;100.00
21111;BME280;10713;51.912;4.494;2023-03-26T06:24:17;100279.38;;;7.72;100.00
21111;BME280;10713;51.912;4.494;2023-03-26T06:26:44;100280.63;;;7.85;100.00
21111;BME280;10713;51.912;4.494;2023-03-26T06:29:10;100268.00;;;7.95;100.00
21111;BME280;10713;51.912;4.494;2023-03-26T06:31:36;100265.25;;;7.98;100.00
21111;BME280;10713;51.912;4.494;2023-03-26T06:34:01;100258.13;;;8.01;100.00
21111;BME280;10713;51.912;4.494;2023-03-26T06:36:27;100246.25;;;7.91;100.00
21111;BME280;10713;51.912;4.494;2023-03-26T06:38:52;100257.03;;;7.83;100.00
21111;BME280;10713;51.912;4.494;2023-03-26T06:41:17;100251.16;;;7.77;100.00
21111;BME280;10713;51.912;4.494;2023-03-26T06:43:43;100252.25;;;7.71;100.00
21111;BME280;10713;51.912;4.494;2023-03-26T06:46:08;100261.09;;;7.68;100.00
21111;BME280;10713;51.912;4.494;2023-03-26T06:48:34;100255.72;;;7.72;100.00
21111;BME280;10713;51.912;4.494;2023-03-26T06:50:59;100255.59;;;7.75;100.00
21111;BME280;10713;51.912;4.494;2023-03-26T06:53:24;100255.25;;;7.84;100.00
21111;BME280;10713;51.912;4.494;2023-03-26T06:55:51;100254.94;;;7.93;100.00
21111;BME280;10713;51.912;4.494;2023-03-26T06:58:17;100256.75;;;7.91;100.00
21111;BME280;10713;51.912;4.494;2023-03-26T07:00:43;100256.63;;;7.94;100.00
21111;BME280;10713;51.912;4.494;2023-03-26T07:03:08;100257.50;;;7.95;100.00
21111;BME280;10713;51.912;4.494;2023-03-26T07:05:35;100252.19;;;7.96;100.00
21111;BME280;10713;51.912;4.494;2023-03-26T07:08:01;100248.81;;;7.93;100.00
21111;BME280;10713;51.912;4.494;2023-03-26T07:10:27;100245.38;;;7.90;100.00
21111;BME280;10713;51.912;4.494;2023-03-26T07:12:52;100250.06;;;7.82;100.00
21111;BME280;10713;51.912;4.494;2023-03-26T07:15:18;100248.38;;;7.81;100.00
21111;BME280;10713;51.912;4.494;2023-03-26T07:17:43;100251.00;;;7.81;100.00
21111;BME280;10713;51.912;4.494;2023-03-26T07:20:09;100243.00;;;7.84;100.00
21111;BME280;10713;51.912;4.494;2023-03-26T07:22:35;100249.78;;;7.90;100.00
21111;BME280;10713;51.912;4.494;2023-03-26T07:25:01;100246.97;;;7.95;100.00
21111;BME280;10713;51.912;4.494;2023-03-26T07:27:35;100242.47;;;7.75;100.00
21111;BME280;10713;51.912;4.494;2023-03-26T07:30:11;100242.91;;;8.09;100.00
21111;BME280;10713;51.912;4.494;2023-03-26T07:35:20;100246.00;;;7.74;100.00
21111;BME280;10713;51.912;4.494;2023-03-26T07:40:57;100249.50;;;7.74;100.00
21111;BME280;10713;51.912;4.494;2023-03-26T07:46:14;100253.06;;;7.95;100.00
21111;BME280;10713;51.912;4.494;2023-03-26T07:48:44;100242.25;;;8.26;100.00
21111;BME280;10713;51.912;4.494;2023-03-26T07:51:14;100248.34;;;8.50;100.00
21111;BME280;10713;51.912;4.494;2023-03-26T07:53:40;100247.69;;;8.45;100.00
21111;BME280;10713;51.912;4.494;2023-03-26T07:59:02;100247.16;;;8.57;100.00
21111;BME280;10713;51.912;4.494;2023-03-26T08:06:34;100248.06;;;7.89;100.00
21111;BME280;10713;51.912;4.494;2023-03-26T08:11:54;100248.72;;;8.18;100.00
21111;BME280;10713;51.912;4.494;2023-03-26T08:17:22;100245.75;;;8.03;100.00
21111;BME280;10713;51.912;4.494;2023-03-26T08:20:18;100251.47;;;8.15;100.00
21111;BME280;10713;51.912;4.494;2023-03-26T08:28:13;100244.03;;;8.26;100.00
21111;BME280;10713;51.912;4.494;2023-03-26T08:30:42;100240.28;;;8.09;100.00
21111;BME280;10713;51.912;4.494;2023-03-26T08:35:36;100244.81;;;8.28;100.00
21111;BME280;10713;51.912;4.494;2023-03-26T08:38:09;100242.56;;;7.95;100.00
21111;BME280;10713;51.912;4.494;2023-03-26T09:05:24;100240.16;;;8.34;100.00
21111;BME280;10713;51.912;4.494;2023-03-26T09:33:38;100241.94;;;8.78;100.00
21111;BME280;10713;51.912;4.494;2023-03-26T09:39:08;100259.06;;;8.68;100.00
21111;BME280;10713;51.912;4.494;2023-03-26T09:41:42;100257.19;;;8.70;100.00
21111;BME280;10713;51.912;4.494;2023-03-26T09:47:28;100263.47;;;8.67;100.00
21111;BME280;10713;51.912;4.494;2023-03-26T10:00:50;100277.31;;;8.93;100.00
21111;BME280;10713;51.912;4.494;2023-03-26T10:06:21;100273.28;;;8.84;100.00
21111;BME280;10713;51.912;4.494;2023-03-26T10:09:12;100280.44;;;8.80;100.00
21111;BME280;10713;51.912;4.494;2023-03-26T10:14:22;100288.16;;;8.85;100.00
21111;BME280;10713;51.912;4.494;2023-03-26T10:19:48;100289.00;;;9.08;100.00
21111;BME280;10713;51.912;4.494;2023-03-26T10:33:25;100303.81;;;9.51;100.00
21111;BME280;10713;51.912;4.494;2023-03-26T10:38:57;100315.88;;;9.57;100.00
21111;BME280;10713;51.912;4.494;2023-03-26T10:41:55;100315.84;;;9.77;100.00
21111;BME280;10713;51.912;4.494;2023-03-26T10:52:08;100319.28;;;9.38;100.00
21111;BME280;10713;51.912;4.494;2023-03-26T10:57:25;100328.16;;;8.73;100.00
21111;BME280;10713;51.912;4.494;2023-03-26T10:59:56;100335.47;;;8.65;100.00
21111;BME280;10713;51.912;4.494;2023-03-26T11:02:29;100332.84;;;8.65;100.00
21111;BME280;10713;51.912;4.494;2023-03-26T11:05:26;100333.41;;;8.73;100.00
21111;BME280;10713;51.912;4.494;2023-03-26T11:08:22;100342.00;;;8.98;100.00
21111;BME280;10713;51.912;4.494;2023-03-26T11:10:55;100346.13;;;9.06;100.00
21111;BME280;10713;51.912;4.494;2023-03-26T11:13:37;100354.41;;;8.96;100.00
21111;BME280;10713;51.912;4.494;2023-03-26T11:18:43;100350.59;;;9.24;100.00
21111;BME280;10713;51.912;4.494;2023-03-26T11:21:20;100354.13;;;9.24;100.00
21111;BME280;10713;51.912;4.494;2023-03-26T11:26:57;100356.00;;;9.21;100.00
21111;BME280;10713;51.912;4.494;2023-03-26T11:37:45;100374.41;;;9.43;100.00
21111;BME280;10713;51.912;4.494;2023-03-26T11:40:17;100367.59;;;9.59;100.00
21111;BME280;10713;51.912;4.494;2023-03-26T11:42:46;100376.19;;;9.42;100.00
21111;BME280;10713;51.912;4.494;2023-03-26T11:45:15;100380.69;;;9.61;100.00
21111;BME280;10713;51.912;4.494;2023-03-26T11:47:58;100384.44;;;9.55;100.00
21111;BME280;10713;51.912;4.494;2023-03-26T11:50:30;100395.06;;;9.54;100.00
21111;BME280;10713;51.912;4.494;2023-03-26T11:53:18;100394.69;;;9.41;100.00
21111;BME280;10713;51.912;4.494;2023-03-26T11:55:53;100397.69;;;9.54;100.00
21111;BME280;10713;51.912;4.494;2023-03-26T11:58:28;100393.84;;;9.40;100.00
21111;BME280;10713;51.912;4.494;2023-03-26T12:00:55;100399.06;;;9.20;100.00
21111;BME280;10713;51.912;4.494;2023-03-26T12:03:21;100415.72;;;9.20;100.00
21111;BME280;10713;51.912;4.494;2023-03-26T12:05:56;100412.91;;;9.03;100.00
21111;BME280;10713;51.912;4.494;2023-03-26T12:08:42;100415.97;;;9.14;100.00
21111;BME280;10713;51.912;4.494;2023-03-26T12:11:10;100424.13;;;9.08;100.00
21111;BME280;10713;51.912;4.494;2023-03-26T12:13:37;100423.59;;;9.22;100.00
21111;BME280;10713;51.912;4.494;2023-03-26T12:16:15;100430.56;;;9.23;100.00
21111;BME280;10713;51.912;4.494;2023-03-26T12:18:42;100430.94;;;9.14;100.00
21111;BME280;10713;51.912;4.494;2023-03-26T12:21:11;100434.56;;;9.10;100.00
21111;BME280;10713;51.912;4.494;2023-03-26T12:23:43;100430.69;;;9.20;100.00
21111;BME280;10713;51.912;4.494;2023-03-26T12:26:19;100438.53;;;9.21;100.00
21111;BME280;10713;51.912;4.494;2023-03-26T12:28:48;100434.16;;;8.98;100.00
21111;BME280;10713;51.912;4.494;2023-03-26T12:31:14;100438.94;;;9.11;100.00
21111;BME280;10713;51.912;4.494;2023-03-26T12:33:42;100446.00;;;9.10;100.00
21111;BME280;10713;51.912;4.494;2023-03-26T12:36:21;100452.22;;;9.30;100.00
21111;BME280;10713;51.912;4.494;2023-03-26T12:38:50;100454.66;;;8.90;100.00
21111;BME280;10713;51.912;4.494;2023-03-26T12:41:20;100454.53;;;9.15;100.00
21111;BME280;10713;51.912;4.494;2023-03-26T12:44:16;100471.78;;;8.78;100.00
21111;BME280;10713;51.912;4.494;2023-03-26T12:46:45;100474.63;;;9.18;100.00
21111;BME280;10713;51.912;4.494;2023-03-26T12:49:11;100469.69;;;9.10;100.00
21111;BME280;10713;51.912;4.494;2023-03-26T12:51:54;100468.38;;;8.98;100.00
21111;BME280;10713;51.912;4.494;2023-03-26T13:07:58;100473.91;;;9.14;100.00
21111;BME280;10713;51.912;4.494;2023-03-26T13:18:56;100482.84;;;9.54;100.00
21111;BME280;10713;51.912;4.494;2023-03-26T13:29:46;100494.56;;;9.25;100.00
21111;BME280;10713;51.912;4.494;2023-03-26T13:32:33;100494.69;;;8.98;100.00
21111;BME280;10713;51.912;4.494;2023-03-26T13:35:18;100504.78;;;9.11;100.00
21111;BME280;10713;51.912;4.494;2023-03-26T13:48:19;100507.13;;;9.40;100.00
21111;BME280;10713;51.912;4.494;2023-03-26T13:50:55;100520.09;;;9.67;100.00
21111;BME280;10713;51.912;4.494;2023-03-26T13:53:24;100524.13;;;9.98;100.00
21111;BME280;10713;51.912;4.494;2023-03-26T13:55:56;100521.16;;;10.27;100.00
21111;BME280;10713;51.912;4.494;2023-03-26T13:58:34;100523.31;;;10.38;100.00
21111;BME280;10713;51.912;4.494;2023-03-26T14:01:06;100525.63;;;10.46;100.00
21111;BME280;10713;51.912;4.494;2023-03-26T14:06:03;100527.50;;;10.22;100.00
21111;BME280;10713;51.912;4.494;2023-03-26T14:08:55;100529.13;;;10.24;100.00
21111;BME280;10713;51.912;4.494;2023-03-26T14:14:19;100522.41;;;10.17;100.00
21111;BME280;10713;51.912;4.494;2023-03-26T14:16:56;100533.09;;;10.14;100.00
21111;BME280;10713;51.912;4.494;2023-03-26T14:19:38;100547.56;;;10.26;100.00
21111;BME280;10713;51.912;4.494;2023-03-26T14:24:52;100531.13;;;9.99;100.00
21111;BME280;10713;51.912;4.494;2023-03-26T14:41:23;100569.41;;;10.50;100.00
21111;BME280;10713;51.912;4.494;2023-03-26T14:47:05;100562.25;;;10.72;100.00
21111;BME280;10713;51.912;4.494;2023-03-26T14:55:17;100583.81;;;10.63;100.00
21111;BME280;10713;51.912;4.494;2023-03-26T15:01:19;100588.69;;;10.52;100.00
21111;BME280;10713;51.912;4.494;2023-03-26T15:06:51;100591.06;;;10.58;100.00
21111;BME280;10713;51.912;4.494;2023-03-26T15:15:14;100629.06;;;10.33;100.00
21111;BME280;10713;51.912;4.494;2023-03-26T15:20:59;100619.34;;;10.34;100.00
21111;BME280;10713;51.912;4.494;2023-03-26T15:40:26;100651.03;;;9.66;100.00
21111;BME280;10713;51.912;4.494;2023-03-26T15:43:09;100655.44;;;9.66;100.00
21111;BME280;10713;51.912;4.494;2023-03-26T15:48:53;100670.13;;;9.73;100.00
21111;BME280;10713;51.912;4.494;2023-03-26T15:54:37;100675.31;;;9.75;100.00
21111;BME280;10713;51.912;4.494;2023-03-26T15:57:18;100684.75;;;9.80;100.00
21111;BME280;10713;51.912;4.494;2023-03-26T16:00:01;100696.97;;;9.83;100.00
21111;BME280;10713;51.912;4.494;2023-03-26T16:10:59;100694.69;;;9.74;100.00
21111;BME280;10713;51.912;4.494;2023-03-26T16:13:39;100714.81;;;9.76;100.00
21111;BME280;10713;51.912;4.494;2023-03-26T16:18:41;100723.06;;;9.90;100.00
21111;BME280;10713;51.912;4.494;2023-03-26T16:26:53;100734.50;;;9.89;100.00
21111;BME280;10713;51.912;4.494;2023-03-26T16:29:25;100750.44;;;9.86;100.00
21111;BME280;10713;51.912;4.494;2023-03-26T16:32:12;100751.53;;;9.81;100.00
21111;BME280;10713;51.912;4.494;2023-03-26T16:46:48;100779.47;;;9.61;100.00
21111;BME280;10713;51.912;4.494;2023-03-26T16:49:17;100780.59;;;9.56;100.00
21111;BME280;10713;51.912;4.494;2023-03-26T16:52:06;100787.34;;;9.38;100.00
21111;BME280;10713;51.912;4.494;2023-03-26T16:54:58;100802.13;;;9.17;100.00
21111;BME280;10713;51.912;4.494;2023-03-26T16:57:35;100801.78;;;9.01;100.00
21111;BME280;10713;51.912;4.494;2023-03-26T17:02:51;100822.09;;;8.97;100.00
21111;BME280;10713;51.912;4.494;2023-03-26T17:05:53;100830.91;;;8.96;100.00
21111;BME280;10713;51.912;4.494;2023-03-26T17:13:35;100844.81;;;8.73;100.00
21111;BME280;10713;51.912;4.494;2023-03-26T17:16:48;100845.75;;;8.71;100.00
21111;BME280;10713;51.912;4.494;2023-03-26T17:19:27;100842.47;;;8.64;100.00
21111;BME280;10713;51.912;4.494;2023-03-26T17:22:13;100853.97;;;8.60;100.00
21111;BME280;10713;51.912;4.494;2023-03-26T17:24:58;100868.91;;;8.60;100.00
21111;BME280;10713;51.912;4.494;2023-03-26T17:27:43;100881.22;;;8.59;100.00
21111;BME280;10713;51.912;4.494;2023-03-26T17:33:27;100884.06;;;8.51;100.00
21111;BME280;10713;51.912;4.494;2023-03-26T17:41:06;100905.75;;;8.28;100.00
21111;BME280;10713;51.912;4.494;2023-03-26T17:46:03;100911.47;;;8.13;100.00
21111;BME280;10713;51.912;4.494;2023-03-26T17:48:32;100925.63;;;8.07;100.00
21111;BME280;10713;51.912;4.494;2023-03-26T17:53:39;100923.97;;;8.03;100.00
21111;BME280;10713;51.912;4.494;2023-03-26T17:56:13;100937.88;;;8.08;100.00
21111;BME280;10713;51.912;4.494;2023-03-26T17:58:45;100948.22;;;8.15;100.00
21111;BME280;10713;51.912;4.494;2023-03-26T18:01:36;100946.75;;;8.04;100.00
21111;BME280;10713;51.912;4.494;2023-03-26T18:04:05;100963.38;;;8.05;100.00
21111;BME280;10713;51.912;4.494;2023-03-26T18:06:54;100953.72;;;8.05;100.00
21111;BME280;10713;51.912;4.494;2023-03-26T18:14:45;100992.81;;;8.18;100.00
21111;BME280;10713;51.912;4.494;2023-03-26T18:17:16;101000.41;;;8.30;100.00
21111;BME280;10713;51.912;4.494;2023-03-26T18:19:51;100999.38;;;8.35;100.00
21111;BME280;10713;51.912;4.494;2023-03-26T18:22:24;101008.94;;;8.40;100.00
21111;BME280;10713;51.912;4.494;2023-03-26T18:24:55;101006.47;;;8.32;100.00
21111;BME280;10713;51.912;4.494;2023-03-26T18:27:26;101017.31;;;8.20;100.00
21111;BME280;10713;51.912;4.494;2023-03-26T18:32:22;101029.47;;;7.91;100.00
21111;BME280;10713;51.912;4.494;2023-03-26T18:35:10;101048.38;;;8.05;100.00
21111;BME280;10713;51.912;4.494;2023-03-26T18:37:37;101049.38;;;8.01;100.00
21111;BME280;10713;51.912;4.494;2023-03-26T18:42:36;101062.34;;;8.07;100.00